createdAt,value
2017-07-14T00:01:00.185Z,0
2017-07-14T00:02:00.906Z,0
2017-07-14T00:03:01.628Z,0
2017-07-14T00:04:02.349Z,0
2017-07-14T00:05:03.067Z,0
2017-07-14T00:06:03.791Z,0
2017-07-14T00:07:04.513Z,0
2017-07-14T00:08:05.235Z,0
2017-07-14T00:09:05.955Z,0
2017-07-14T00:10:06.677Z,0
2017-07-14T00:11:07.399Z,0
2017-07-14T00:12:08.124Z,0
2017-07-14T00:13:08.841Z,0
2017-07-14T00:14:09.583Z,0
2017-07-14T00:15:10.310Z,0
2017-07-14T00:16:11.048Z,0
2017-07-14T00:17:11.783Z,0
2017-07-14T00:18:12.495Z,0
2017-07-14T00:19:13.208Z,0
2017-07-14T00:20:13.930Z,0
2017-07-14T00:21:14.652Z,0
2017-07-14T00:22:15.376Z,0
2017-07-14T00:23:16.092Z,0
2017-07-14T00:24:16.818Z,0
2017-07-14T00:25:17.536Z,0
2017-07-14T00:26:18.278Z,0
2017-07-14T00:27:19.015Z,0
2017-07-14T00:28:19.740Z,0
2017-07-14T00:29:20.457Z,0
2017-07-14T00:30:21.182Z,0
2017-07-14T00:31:21.906Z,0
2017-07-14T00:32:22.650Z,0
2017-07-14T00:33:23.371Z,0
2017-07-14T00:34:24.089Z,0
2017-07-14T00:35:24.836Z,0
2017-07-14T00:36:25.556Z,0
2017-07-14T00:37:26.277Z,0
2017-07-14T00:38:27.000Z,0
2017-07-14T00:39:27.723Z,0
2017-07-14T00:40:28.439Z,0
2017-07-14T00:41:29.157Z,0
2017-07-14T00:42:29.882Z,0
2017-07-14T00:43:30.594Z,0
2017-07-14T00:44:31.317Z,0
2017-07-14T00:45:32.057Z,0
2017-07-14T00:46:32.801Z,0
2017-07-14T00:47:33.518Z,0
2017-07-14T00:48:34.263Z,0
2017-07-14T00:49:34.981Z,0
2017-07-14T00:50:35.703Z,0
2017-07-14T00:51:36.423Z,0
2017-07-14T00:52:37.167Z,0
2017-07-14T00:53:37.891Z,0
2017-07-14T00:54:38.609Z,0
2017-07-14T00:55:39.350Z,0
2017-07-14T00:56:40.093Z,0
2017-07-14T00:57:40.821Z,0
2017-07-14T00:58:41.536Z,0
2017-07-14T00:59:42.261Z,0
2017-07-14T01:00:42.982Z,0
2017-07-14T01:01:43.704Z,0
2017-07-14T01:02:44.429Z,0
2017-07-14T01:03:45.146Z,0
2017-07-14T01:04:45.866Z,0
2017-07-14T01:05:46.610Z,0
2017-07-14T01:06:47.334Z,0
2017-07-14T01:07:48.054Z,0
2017-07-14T01:08:48.794Z,0
2017-07-14T01:09:49.537Z,0
2017-07-14T01:10:50.259Z,0
2017-07-14T01:11:50.981Z,0
2017-07-14T01:12:51.702Z,0
2017-07-14T01:14:53.048Z,0
2017-07-14T01:15:53.769Z,0
2017-07-14T01:16:54.513Z,0
2017-07-14T01:17:55.233Z,0
2017-07-14T01:18:55.970Z,0
2017-07-14T01:19:56.714Z,0
2017-07-14T01:20:57.434Z,0
2017-07-14T01:21:58.156Z,0
2017-07-14T01:22:58.897Z,0
2017-07-14T01:23:59.621Z,0
2017-07-14T01:25:00.363Z,0
2017-07-14T01:26:01.081Z,0
2017-07-14T01:27:01.804Z,0
2017-07-14T01:28:02.525Z,0
2017-07-14T01:29:03.247Z,0
2017-07-14T01:30:03.990Z,0
2017-07-14T01:31:04.710Z,0
2017-07-14T01:32:05.433Z,0
2017-07-14T01:33:06.155Z,0
2017-07-14T01:34:06.873Z,0
2017-07-14T01:35:07.592Z,0
2017-07-14T01:36:08.334Z,0
2017-07-14T01:37:09.054Z,0
2017-07-14T01:38:09.773Z,0
2017-07-14T01:39:10.493Z,0
2017-07-14T01:40:11.217Z,0
2017-07-14T01:41:11.936Z,0
2017-07-14T01:42:12.654Z,0
2017-07-14T01:43:13.393Z,0
2017-07-14T01:44:14.112Z,0
2017-07-14T01:45:14.831Z,0
2017-07-14T01:46:15.553Z,0
2017-07-14T01:47:16.272Z,0
2017-07-14T01:48:16.991Z,0
2017-07-14T01:49:17.709Z,0
2017-07-14T01:50:18.429Z,0
2017-07-14T01:51:19.151Z,0
2017-07-14T01:52:19.893Z,0
2017-07-14T01:53:20.617Z,0
2017-07-14T01:54:21.338Z,0
2017-07-14T01:55:22.078Z,0
2017-07-14T01:56:22.801Z,0
2017-07-14T01:57:23.520Z,0
2017-07-14T01:58:24.241Z,0
2017-07-14T01:59:24.958Z,0
2017-07-14T02:00:25.678Z,0
2017-07-14T02:01:26.398Z,0
2017-07-14T02:02:27.118Z,0
2017-07-14T02:03:27.835Z,0
2017-07-14T02:04:28.559Z,0
2017-07-14T02:05:29.277Z,0
2017-07-14T02:06:30.000Z,0
2017-07-14T02:07:30.719Z,0
2017-07-14T02:08:31.473Z,0
2017-07-14T02:09:32.207Z,0
2017-07-14T02:10:32.926Z,0
2017-07-14T02:11:33.652Z,0
2017-07-14T02:12:34.372Z,0
2017-07-14T02:13:35.090Z,0
2017-07-14T02:14:35.816Z,0
2017-07-14T02:15:36.536Z,0
2017-07-14T02:16:37.279Z,0
2017-07-14T02:17:38.000Z,0
2017-07-14T02:18:38.720Z,0
2017-07-14T02:19:39.440Z,0
2017-07-14T02:20:40.183Z,0
2017-07-14T02:21:40.901Z,0
2017-07-14T02:22:41.647Z,0
2017-07-14T02:23:42.396Z,0
2017-07-14T02:24:43.110Z,0
2017-07-14T02:25:43.830Z,0
2017-07-14T02:26:44.573Z,0
2017-07-14T02:27:45.298Z,0
2017-07-14T02:28:46.023Z,0
2017-07-14T02:29:46.738Z,0
2017-07-14T02:30:47.480Z,0
2017-07-14T02:31:48.203Z,0
2017-07-14T02:32:48.945Z,0
2017-07-14T02:33:49.689Z,0
2017-07-14T02:34:50.410Z,0
2017-07-14T02:35:51.132Z,0
2017-07-14T02:36:51.854Z,0
2017-07-14T02:37:52.572Z,0
2017-07-14T02:38:53.297Z,0
2017-07-14T02:39:54.018Z,0
2017-07-14T02:40:54.742Z,0
2017-07-14T02:41:55.457Z,0
2017-07-14T02:42:56.176Z,0
2017-07-14T02:43:56.900Z,0
2017-07-14T02:44:57.624Z,0
2017-07-14T02:45:58.341Z,0
2017-07-14T02:46:59.083Z,0
2017-07-14T02:47:59.805Z,0
2017-07-14T02:49:00.546Z,0
2017-07-14T02:50:01.270Z,4
2017-07-14T02:51:01.993Z,4
2017-07-14T02:52:02.712Z,4
2017-07-14T02:53:03.434Z,4
2017-07-14T02:54:04.151Z,4
2017-07-14T02:55:04.890Z,4
2017-07-14T02:56:05.610Z,4
2017-07-14T02:57:06.333Z,4
2017-07-14T02:58:07.054Z,4
2017-07-14T02:59:07.790Z,8
2017-07-14T03:00:08.509Z,8
2017-07-14T03:01:09.214Z,12
2017-07-14T03:02:09.957Z,12
2017-07-14T03:03:10.721Z,12
2017-07-14T03:04:11.438Z,16
2017-07-14T03:05:12.163Z,16
2017-07-14T03:06:12.907Z,16
2017-07-14T03:07:13.629Z,20
2017-07-14T03:08:14.351Z,20
2017-07-14T03:09:15.094Z,24
2017-07-14T03:10:15.818Z,28
2017-07-14T03:11:16.543Z,28
2017-07-14T03:12:17.263Z,32
2017-07-14T03:13:18.006Z,32
2017-07-14T03:14:18.727Z,40
2017-07-14T03:15:19.472Z,40
2017-07-14T03:16:20.193Z,44
2017-07-14T03:17:20.937Z,48
2017-07-14T03:18:21.662Z,56
2017-07-14T03:19:22.404Z,60
2017-07-14T03:20:23.125Z,72
2017-07-14T03:21:23.846Z,76
2017-07-14T03:22:24.569Z,84
2017-07-14T03:23:25.288Z,92
2017-07-14T03:24:26.012Z,100
2017-07-14T03:25:26.734Z,112
2017-07-14T03:26:27.478Z,120
2017-07-14T03:27:28.202Z,132
2017-07-14T03:28:28.925Z,144
2017-07-14T03:29:29.650Z,156
2017-07-14T03:30:30.371Z,168
2017-07-14T03:31:31.094Z,176
2017-07-14T03:32:31.820Z,192
2017-07-14T03:33:32.542Z,204
2017-07-14T03:34:33.289Z,216
2017-07-14T03:35:34.013Z,232
2017-07-14T03:36:34.737Z,248
2017-07-14T03:37:35.464Z,264
2017-07-14T03:38:36.187Z,280
2017-07-14T03:39:36.911Z,296
2017-07-14T03:40:37.633Z,316
2017-07-14T03:41:38.362Z,336
2017-07-14T03:42:39.082Z,356
2017-07-14T03:43:39.805Z,376
2017-07-14T03:44:40.530Z,396
2017-07-14T03:45:41.252Z,416
2017-07-14T03:46:41.980Z,440
2017-07-14T03:47:42.725Z,464
2017-07-14T03:48:43.448Z,492
2017-07-14T03:49:44.191Z,516
2017-07-14T03:50:44.917Z,536
2017-07-14T03:51:45.641Z,556
2017-07-14T03:52:46.362Z,580
2017-07-14T03:53:47.087Z,600
2017-07-14T03:54:47.832Z,616
2017-07-14T03:55:48.554Z,636
2017-07-14T03:56:49.277Z,660
2017-07-14T03:57:50.001Z,680
2017-07-14T03:58:50.729Z,708
2017-07-14T03:59:51.455Z,732
2017-07-14T04:00:52.180Z,748
2017-07-14T04:01:52.910Z,772
2017-07-14T04:02:53.659Z,804
2017-07-14T04:03:54.407Z,836
2017-07-14T04:04:55.130Z,872
2017-07-14T04:05:55.862Z,908
2017-07-14T04:06:56.582Z,940
2017-07-14T04:07:57.306Z,976
2017-07-14T04:08:58.055Z,1008
2017-07-14T04:09:58.777Z,1048
2017-07-14T04:10:59.504Z,1084
2017-07-14T04:12:00.228Z,1136
2017-07-14T04:13:00.953Z,1200
2017-07-14T04:14:01.689Z,1288
2017-07-14T04:15:02.411Z,1388
2017-07-14T04:16:03.135Z,1484
2017-07-14T04:17:03.865Z,1584
2017-07-14T04:18:04.590Z,1684
2017-07-14T04:19:05.316Z,1784
2017-07-14T04:20:06.041Z,1856
2017-07-14T04:21:06.770Z,1896
2017-07-14T04:22:07.516Z,1920
2017-07-14T04:23:08.247Z,1944
2017-07-14T04:24:08.974Z,1952
2017-07-14T04:25:09.702Z,1944
2017-07-14T04:26:10.433Z,1928
2017-07-14T04:27:11.170Z,1940
2017-07-14T04:28:11.898Z,1964
2017-07-14T04:29:12.622Z,1968
2017-07-14T04:30:13.358Z,1972
2017-07-14T04:31:14.081Z,1988
2017-07-14T04:32:14.807Z,2024
2017-07-14T04:33:15.533Z,2032
2017-07-14T04:34:16.258Z,2024
2017-07-14T04:35:16.988Z,2020
2017-07-14T04:36:17.710Z,2028
2017-07-14T04:37:18.435Z,2036
2017-07-14T04:38:19.164Z,2048
2017-07-14T04:39:19.892Z,2052
2017-07-14T04:40:20.617Z,2056
2017-07-14T04:41:21.345Z,2044
2017-07-14T04:42:22.096Z,2024
2017-07-14T04:43:22.823Z,2004
2017-07-14T04:44:23.552Z,1980
2017-07-14T04:45:24.276Z,1980
2017-07-14T04:46:25.002Z,1988
2017-07-14T04:47:25.735Z,2004
2017-07-14T04:48:26.465Z,2020
2017-07-14T04:49:27.213Z,2044
2017-07-14T04:50:27.945Z,2072
2017-07-14T04:51:28.673Z,2100
2017-07-14T04:52:29.401Z,2128
2017-07-14T04:53:30.128Z,2152
2017-07-14T04:54:30.856Z,2180
2017-07-14T04:55:31.581Z,2200
2017-07-14T04:56:32.308Z,2216
2017-07-14T04:57:33.040Z,2228
2017-07-14T04:58:33.769Z,2232
2017-07-14T04:59:34.491Z,2236
2017-07-14T05:00:35.238Z,2252
2017-07-14T05:01:35.987Z,2264
2017-07-14T05:02:36.736Z,2272
2017-07-14T05:03:37.489Z,2284
2017-07-14T05:04:38.240Z,2288
2017-07-14T05:05:38.969Z,2300
2017-07-14T05:06:39.697Z,2324
2017-07-14T05:07:40.427Z,2344
2017-07-14T05:08:41.158Z,2372
2017-07-14T05:09:41.884Z,2404
2017-07-14T05:10:42.615Z,2436
2017-07-14T05:11:43.345Z,2472
2017-07-14T05:12:44.072Z,2512
2017-07-14T05:13:44.800Z,2548
2017-07-14T05:14:45.529Z,2580
2017-07-14T05:15:46.283Z,2612
2017-07-14T05:16:47.010Z,2652
2017-07-14T05:17:47.736Z,2688
2017-07-14T05:18:48.467Z,2716
2017-07-14T05:19:49.198Z,2732
2017-07-14T05:20:49.926Z,2756
2017-07-14T05:21:50.658Z,2776
2017-07-14T05:22:51.386Z,2804
2017-07-14T05:23:52.140Z,2836
2017-07-14T05:24:52.873Z,2872
2017-07-14T05:25:53.627Z,2916
2017-07-14T05:26:54.376Z,2948
2017-07-14T05:27:55.116Z,2984
2017-07-14T05:28:55.837Z,3008
2017-07-14T05:29:56.563Z,3040
2017-07-14T05:30:57.292Z,3072
2017-07-14T05:31:58.021Z,3084
2017-07-14T05:32:58.753Z,3108
2017-07-14T05:33:59.483Z,3124
2017-07-14T05:35:00.215Z,3140
2017-07-14T05:36:00.945Z,3164
2017-07-14T05:37:01.698Z,3188
2017-07-14T05:38:02.449Z,3220
2017-07-14T05:39:03.182Z,3240
2017-07-14T05:40:03.935Z,3264
2017-07-14T05:41:04.662Z,3296
2017-07-14T05:42:05.414Z,3332
2017-07-14T05:43:06.163Z,3360
2017-07-14T05:44:06.896Z,3384
2017-07-14T05:45:07.621Z,3420
2017-07-14T05:46:08.372Z,3444
2017-07-14T05:47:09.101Z,3476
2017-07-14T05:48:09.834Z,3512
2017-07-14T05:49:10.561Z,3548
2017-07-14T05:50:11.293Z,3588
2017-07-14T05:51:12.018Z,3628
2017-07-14T05:52:12.774Z,3660
2017-07-14T05:53:13.498Z,3684
2017-07-14T05:54:14.232Z,3708
2017-07-14T05:55:14.983Z,3724
2017-07-14T05:56:15.716Z,3740
2017-07-14T05:57:16.446Z,3748
2017-07-14T05:58:17.174Z,3752
2017-07-14T05:59:17.906Z,3752
2017-07-14T06:00:18.655Z,3720
2017-07-14T06:01:19.383Z,3708
2017-07-14T06:02:20.116Z,3728
2017-07-14T06:03:20.844Z,3780
2017-07-14T06:04:21.578Z,3848
2017-07-14T06:05:22.306Z,3884
2017-07-14T06:06:23.059Z,3916
2017-07-14T06:07:23.784Z,3916
2017-07-14T06:08:24.523Z,3932
2017-07-14T06:09:25.247Z,4016
2017-07-14T06:10:25.976Z,4040
2017-07-14T06:11:26.704Z,4084
2017-07-14T06:12:27.436Z,4108
2017-07-14T06:13:28.168Z,4160
2017-07-14T06:14:28.896Z,4180
2017-07-14T06:15:29.623Z,4196
2017-07-14T06:16:30.356Z,4220
2017-07-14T06:17:31.088Z,4244
2017-07-14T06:18:31.843Z,4252
2017-07-14T06:19:32.571Z,4252
2017-07-14T06:20:33.309Z,4264
2017-07-14T06:21:34.033Z,4292
2017-07-14T06:22:34.784Z,4312
2017-07-14T06:23:35.510Z,4328
2017-07-14T06:24:36.240Z,4372
2017-07-14T06:25:36.982Z,4408
2017-07-14T06:26:37.728Z,4440
2017-07-14T06:27:38.458Z,4472
2017-07-14T06:28:39.211Z,4508
2017-07-14T06:29:39.962Z,4524
2017-07-14T06:30:40.693Z,4560
2017-07-14T06:31:41.420Z,4600
2017-07-14T06:32:42.154Z,4648
2017-07-14T06:33:42.884Z,4668
2017-07-14T06:34:43.612Z,4688
2017-07-14T06:35:44.345Z,4708
2017-07-14T06:36:45.094Z,4720
2017-07-14T06:37:45.825Z,4752
2017-07-14T06:38:46.550Z,4772
2017-07-14T06:39:47.277Z,4812
2017-07-14T06:40:48.006Z,4868
2017-07-14T06:41:48.739Z,4912
2017-07-14T06:42:49.472Z,4968
2017-07-14T06:43:50.199Z,5040
2017-07-14T06:44:50.927Z,5100
2017-07-14T06:45:51.658Z,5180
2017-07-14T06:46:52.408Z,5228
2017-07-14T06:47:53.155Z,5288
2017-07-14T06:48:53.907Z,5348
2017-07-14T06:49:54.640Z,5392
2017-07-14T06:50:55.394Z,5468
2017-07-14T06:51:56.124Z,5512
2017-07-14T06:52:56.851Z,5568
2017-07-14T06:53:57.602Z,5592
2017-07-14T06:54:58.333Z,5688
2017-07-14T06:55:59.062Z,5776
2017-07-14T06:56:59.811Z,5856
2017-07-14T06:58:00.542Z,5952
2017-07-14T06:59:01.298Z,5996
2017-07-14T07:00:02.029Z,6052
2017-07-14T07:01:02.759Z,6060
2017-07-14T07:02:03.487Z,6096
2017-07-14T07:03:04.220Z,6120
2017-07-14T07:04:04.946Z,6136
2017-07-14T07:05:05.677Z,6176
2017-07-14T07:06:06.410Z,6228
2017-07-14T07:07:07.160Z,6320
2017-07-14T07:08:07.888Z,6436
2017-07-14T07:09:08.618Z,6564
2017-07-14T07:10:09.353Z,6704
2017-07-14T07:11:10.073Z,6876
2017-07-14T07:12:10.806Z,7056
2017-07-14T07:13:11.535Z,7260
2017-07-14T07:14:12.289Z,7388
2017-07-14T07:15:13.021Z,7404
2017-07-14T07:16:13.745Z,7524
2017-07-14T07:17:14.472Z,7468
2017-07-14T07:18:15.220Z,7300
2017-07-14T07:19:15.951Z,7084
2017-07-14T07:20:16.679Z,7120
2017-07-14T07:21:17.409Z,7072
2017-07-14T07:22:18.139Z,7116
2017-07-14T07:23:18.867Z,7184
2017-07-14T07:24:19.601Z,7236
2017-07-14T07:25:20.326Z,7296
2017-07-14T07:26:21.059Z,7380
2017-07-14T07:27:21.796Z,7456
2017-07-14T07:28:22.550Z,7544
2017-07-14T07:29:23.298Z,7660
2017-07-14T07:30:24.031Z,7800
2017-07-14T07:31:24.780Z,7888
2017-07-14T07:32:25.510Z,7972
2017-07-14T07:33:26.245Z,7948
2017-07-14T07:34:26.972Z,7856
2017-07-14T07:35:27.700Z,7924
2017-07-14T07:36:28.455Z,7960
2017-07-14T07:37:29.206Z,8032
2017-07-14T07:38:29.936Z,7992
2017-07-14T07:39:30.667Z,8044
2017-07-14T07:40:31.393Z,8272
2017-07-14T07:41:32.127Z,8484
2017-07-14T07:42:32.855Z,8588
2017-07-14T07:43:33.587Z,8760
2017-07-14T07:44:34.315Z,8640
2017-07-14T07:45:35.048Z,9444
2017-07-14T07:46:35.776Z,9464
2017-07-14T07:47:36.531Z,9880
2017-07-14T07:48:37.263Z,10116
2017-07-14T07:49:37.997Z,10344
2017-07-14T07:50:38.754Z,10608
2017-07-14T07:51:39.493Z,10980
2017-07-14T07:52:40.231Z,10856
2017-07-14T07:53:40.984Z,11144
2017-07-14T07:54:41.725Z,11676
2017-07-14T07:55:42.461Z,11292
2017-07-14T07:56:43.200Z,11028
2017-07-14T07:57:43.939Z,11648
2017-07-14T07:58:44.683Z,11352
2017-07-14T07:59:45.421Z,12632
2017-07-14T08:00:46.161Z,14016
2017-07-14T08:01:46.924Z,14248
2017-07-14T08:02:47.660Z,14772
2017-07-14T08:03:48.396Z,14676
2017-07-14T08:04:49.158Z,41824
2017-07-14T08:05:49.900Z,40512
2017-07-14T08:06:50.639Z,37472
2017-07-14T08:07:51.381Z,40576
2017-07-14T08:08:52.119Z,37344
2017-07-14T08:09:52.876Z,45600
2017-07-14T08:10:53.617Z,51200
2017-07-14T08:11:54.360Z,73504
2017-07-14T08:12:55.125Z,71296
2017-07-14T08:13:55.858Z,72256
2017-07-14T08:14:56.616Z,44352
2017-07-14T08:15:57.382Z,55456
2017-07-14T08:16:58.093Z,29792
2017-07-14T08:17:58.836Z,28384
2017-07-14T08:18:59.573Z,17984
2017-07-14T08:20:00.336Z,11808
2017-07-14T08:21:01.069Z,9980
2017-07-14T08:22:01.828Z,10252
2017-07-14T08:23:02.567Z,23904
2017-07-14T08:24:03.304Z,26656
2017-07-14T08:25:04.062Z,9532
2017-07-14T08:26:04.817Z,8976
2017-07-14T08:27:05.571Z,10316
2017-07-14T08:28:06.313Z,11336
2017-07-14T08:29:07.050Z,15940
2017-07-14T08:30:07.785Z,12488
2017-07-14T08:31:08.528Z,12896
2017-07-14T08:32:09.270Z,13956
2017-07-14T08:33:10.029Z,13524
2017-07-14T08:34:10.764Z,14132
2017-07-14T08:35:11.502Z,15448
2017-07-14T08:36:12.246Z,17120
2017-07-14T08:37:12.982Z,71616
2017-07-14T08:38:13.722Z,18144
2017-07-14T08:39:14.459Z,18080
2017-07-14T08:40:15.200Z,75616
2017-07-14T08:41:15.940Z,74752
2017-07-14T08:42:16.680Z,79168
2017-07-14T08:43:17.415Z,48512
2017-07-14T08:44:18.154Z,78816
2017-07-14T08:45:18.897Z,37280
2017-07-14T08:46:19.656Z,62400
2017-07-14T08:47:20.396Z,77760
2017-07-14T08:48:21.139Z,62304
2017-07-14T08:49:21.877Z,60224
2017-07-14T08:50:22.619Z,75936
2017-07-14T08:51:23.383Z,78880
2017-07-14T08:52:24.147Z,79104
2017-07-14T08:53:24.889Z,81024
2017-07-14T08:54:25.634Z,83360
2017-07-14T08:55:26.377Z,72224
2017-07-14T08:56:27.120Z,78752
2017-07-14T08:57:27.860Z,79648
2017-07-14T08:58:28.599Z,84512
2017-07-14T08:59:29.366Z,57184
2017-07-14T09:00:30.127Z,27136
2017-07-14T09:01:30.868Z,10688
2017-07-14T09:02:31.608Z,20576
2017-07-14T09:03:32.351Z,11400
2017-07-14T09:04:33.090Z,12372
2017-07-14T09:05:33.832Z,10040
2017-07-14T09:06:34.569Z,87488
2017-07-14T09:07:35.311Z,82944
2017-07-14T09:08:36.068Z,86464
2017-07-14T09:09:36.806Z,85216
2017-07-14T09:10:37.553Z,85664
2017-07-14T09:11:38.296Z,86112
2017-07-14T09:12:39.064Z,83296
2017-07-14T09:13:39.803Z,83392
2017-07-14T09:14:40.549Z,85184
2017-07-14T09:15:41.312Z,84768
2017-07-14T09:16:42.058Z,82080
2017-07-14T09:17:42.800Z,78880
2017-07-14T09:18:43.546Z,83648
2017-07-14T09:19:44.290Z,87200
2017-07-14T09:20:45.043Z,83456
2017-07-14T09:21:45.785Z,84352
2017-07-14T09:22:46.531Z,44864
2017-07-14T09:23:47.279Z,15868
2017-07-14T09:24:48.022Z,17024
2017-07-14T09:25:48.762Z,82848
2017-07-14T09:26:49.504Z,77472
2017-07-14T09:27:50.247Z,85536
2017-07-14T09:28:50.996Z,58080
2017-07-14T09:29:51.741Z,45472
2017-07-14T09:30:52.483Z,58560
2017-07-14T09:31:53.229Z,59264
2017-07-14T09:32:53.968Z,62368
2017-07-14T09:33:54.713Z,55840
2017-07-14T09:34:55.462Z,24896
2017-07-14T09:35:56.202Z,20864
2017-07-14T09:36:56.950Z,20864
2017-07-14T09:37:57.689Z,23072
2017-07-14T09:38:58.427Z,30944
2017-07-14T09:39:59.194Z,53728
2017-07-14T09:40:59.936Z,42752
2017-07-14T09:42:00.678Z,37856
2017-07-14T09:43:01.418Z,30176
2017-07-14T09:44:02.159Z,40704
2017-07-14T09:45:02.900Z,32832
2017-07-14T09:46:03.645Z,83072
2017-07-14T09:47:04.381Z,23200
2017-07-14T09:48:05.118Z,22432
2017-07-14T09:49:05.859Z,56736
2017-07-14T09:50:06.602Z,99488
2017-07-14T09:51:07.366Z,98912
2017-07-14T09:52:08.110Z,99520
2017-07-14T09:53:08.851Z,77600
2017-07-14T09:54:09.593Z,58656
2017-07-14T09:55:10.359Z,52128
2017-07-14T09:56:11.106Z,97184
2017-07-14T09:57:11.852Z,92640
2017-07-14T09:58:12.650Z,56800
2017-07-14T09:59:13.368Z,41216
2017-07-14T10:00:14.113Z,71104
2017-07-14T10:01:14.861Z,62080
2017-07-14T10:02:15.609Z,62496
2017-07-14T10:03:16.355Z,57568
2017-07-14T10:04:17.103Z,34560
2017-07-14T10:05:17.846Z,28288
2017-07-14T10:06:18.585Z,26112
2017-07-14T10:07:19.330Z,42560
2017-07-14T10:08:20.072Z,64896
2017-07-14T10:09:20.816Z,53024
2017-07-14T10:10:21.555Z,85664
2017-07-14T10:11:22.306Z,56864
2017-07-14T10:12:23.047Z,57376
2017-07-14T10:13:23.792Z,43424
2017-07-14T10:14:24.558Z,39840
2017-07-14T10:15:25.301Z,39200
2017-07-14T10:16:26.065Z,30720
2017-07-14T10:17:26.801Z,33504
2017-07-14T10:18:27.543Z,35264
2017-07-14T10:19:28.285Z,45632
2017-07-14T10:20:29.027Z,42112
2017-07-14T10:21:29.766Z,60928
2017-07-14T10:22:30.511Z,98752
2017-07-14T10:23:31.250Z,25280
2017-07-14T10:24:31.989Z,25792
2017-07-14T10:25:32.756Z,28736
2017-07-14T10:26:33.493Z,31552
2017-07-14T10:27:34.277Z,32064
2017-07-14T10:28:34.993Z,28832
2017-07-14T10:29:35.738Z,30240
2017-07-14T10:30:36.495Z,22848
2017-07-14T10:31:37.237Z,22752
2017-07-14T10:32:37.979Z,20704
2017-07-14T10:33:38.717Z,18080
2017-07-14T10:34:39.453Z,17184
2017-07-14T10:35:40.196Z,17600
2017-07-14T10:36:40.934Z,19360
2017-07-14T10:37:41.672Z,36288
2017-07-14T10:38:42.412Z,25600
2017-07-14T10:39:43.155Z,20768
2017-07-14T10:40:43.892Z,19008
2017-07-14T10:41:44.631Z,17440
2017-07-14T10:42:45.371Z,16640
2017-07-14T10:43:46.105Z,16672
2017-07-14T10:44:46.846Z,17824
2017-07-14T10:45:47.586Z,19648
2017-07-14T10:46:48.348Z,22688
2017-07-14T10:47:49.111Z,26656
2017-07-14T10:48:49.847Z,22880
2017-07-14T10:49:50.583Z,21792
2017-07-14T10:50:51.331Z,20832
2017-07-14T10:51:52.059Z,20128
2017-07-14T10:52:52.801Z,19968
2017-07-14T10:53:53.534Z,21664
2017-07-14T10:54:54.273Z,24768
2017-07-14T10:55:55.014Z,25984
2017-07-14T10:56:55.750Z,25952
2017-07-14T10:57:56.486Z,26112
2017-07-14T10:58:57.223Z,32448
2017-07-14T10:59:57.960Z,48960
2017-07-14T11:00:58.705Z,45664
2017-07-14T11:01:59.442Z,44672
2017-07-14T11:03:00.178Z,52320
2017-07-14T11:04:00.916Z,33056
2017-07-14T11:05:01.652Z,30816
2017-07-14T11:06:02.393Z,36480
2017-07-14T11:07:03.158Z,39296
2017-07-14T11:08:03.918Z,39328
2017-07-14T11:09:04.659Z,47008
2017-07-14T11:10:05.395Z,26688
2017-07-14T11:11:06.136Z,25600
2017-07-14T11:12:06.871Z,24576
2017-07-14T11:13:07.613Z,47008
2017-07-14T11:14:08.349Z,24480
2017-07-14T11:15:09.087Z,24320
2017-07-14T11:16:09.826Z,47200
2017-07-14T11:17:10.562Z,33280
2017-07-14T11:18:11.305Z,40000
2017-07-14T11:19:12.040Z,26304
2017-07-14T11:20:12.781Z,21952
2017-07-14T11:21:13.514Z,22720
2017-07-14T11:22:14.257Z,23616
2017-07-14T11:23:14.996Z,15888
2017-07-14T11:24:15.733Z,14784
2017-07-14T11:25:16.494Z,14644
2017-07-14T11:26:17.232Z,14132
2017-07-14T11:27:17.967Z,12860
2017-07-14T11:28:18.702Z,12096
2017-07-14T11:29:19.441Z,11740
2017-07-14T11:30:20.178Z,11544
2017-07-14T11:31:20.910Z,11524
2017-07-14T11:32:21.648Z,11880
2017-07-14T11:33:22.383Z,12484
2017-07-14T11:34:23.126Z,13140
2017-07-14T11:35:23.854Z,13356
2017-07-14T11:36:24.615Z,13172
2017-07-14T11:37:25.378Z,12424
2017-07-14T11:38:26.112Z,12140
2017-07-14T11:39:26.848Z,11752
2017-07-14T11:40:27.581Z,11208
2017-07-14T11:41:28.321Z,10492
2017-07-14T11:42:29.057Z,10080
2017-07-14T11:43:29.814Z,9728
2017-07-14T11:44:30.552Z,9612
2017-07-14T11:45:31.294Z,9656
2017-07-14T11:46:32.045Z,9692
2017-07-14T11:47:32.801Z,10716
2017-07-14T11:48:33.537Z,11676
2017-07-14T11:49:34.272Z,12400
2017-07-14T11:50:35.012Z,12160
2017-07-14T11:51:35.749Z,12268
2017-07-14T11:52:36.483Z,12580
2017-07-14T11:53:37.220Z,12784
2017-07-14T11:54:37.963Z,13004
2017-07-14T11:55:38.720Z,13004
2017-07-14T11:56:39.475Z,13060
2017-07-14T11:57:40.235Z,13188
2017-07-14T11:58:40.969Z,13012
2017-07-14T11:59:41.725Z,12960
2017-07-14T12:00:42.464Z,13044
2017-07-14T12:01:43.197Z,12936
2017-07-14T12:02:43.936Z,12028
2017-07-14T12:03:44.677Z,11812
2017-07-14T12:04:45.413Z,12064
2017-07-14T12:05:46.148Z,12616
2017-07-14T12:06:46.884Z,13456
2017-07-14T12:07:47.624Z,14312
2017-07-14T12:08:48.356Z,15372
2017-07-14T12:09:49.093Z,16308
2017-07-14T12:10:49.833Z,17312
2017-07-14T12:11:50.568Z,19168
2017-07-14T12:12:51.310Z,19712
2017-07-14T12:13:52.047Z,18112
2017-07-14T12:14:52.785Z,17056
2017-07-14T12:15:53.546Z,16608
2017-07-14T12:16:54.285Z,16704
2017-07-14T12:17:55.022Z,16704
2017-07-14T12:18:55.756Z,16052
2017-07-14T12:19:56.494Z,15828
2017-07-14T12:20:57.254Z,15692
2017-07-14T12:21:57.992Z,15176
2017-07-14T12:22:58.728Z,13572
2017-07-14T12:23:59.465Z,12076
2017-07-14T12:25:00.207Z,10848
2017-07-14T12:26:00.964Z,9688
2017-07-14T12:27:01.696Z,8704
2017-07-14T12:28:02.433Z,7868
2017-07-14T12:29:03.191Z,7232
2017-07-14T12:30:03.929Z,6752
2017-07-14T12:31:04.667Z,6476
2017-07-14T12:32:05.399Z,6292
2017-07-14T12:33:06.139Z,6212
2017-07-14T12:34:06.873Z,6188
2017-07-14T12:35:07.631Z,6236
2017-07-14T12:36:08.365Z,6152
2017-07-14T12:37:09.117Z,6060
2017-07-14T12:38:09.874Z,5932
2017-07-14T12:39:10.628Z,5912
2017-07-14T12:40:11.363Z,6180
2017-07-14T12:41:12.097Z,6520
2017-07-14T12:42:12.835Z,6792
2017-07-14T12:43:13.587Z,7044
2017-07-14T12:44:14.316Z,7368
2017-07-14T12:45:15.056Z,7756
2017-07-14T12:46:15.810Z,8172
2017-07-14T12:47:16.548Z,8552
2017-07-14T12:48:17.281Z,8792
2017-07-14T12:49:18.034Z,8936
2017-07-14T12:50:18.789Z,9168
2017-07-14T12:51:19.528Z,9800
2017-07-14T12:52:20.260Z,10420
2017-07-14T12:53:20.998Z,10408
2017-07-14T12:54:21.726Z,10032
2017-07-14T12:55:22.460Z,9800
2017-07-14T12:56:23.192Z,10336
2017-07-14T12:57:23.928Z,11912
2017-07-14T12:58:24.684Z,14548
2017-07-14T12:59:25.414Z,18784
2017-07-14T13:00:26.149Z,20640
2017-07-14T13:01:26.906Z,21056
2017-07-14T13:02:27.650Z,20480
2017-07-14T13:03:28.403Z,21504
2017-07-14T13:04:29.139Z,26944
2017-07-14T13:05:29.877Z,31424
2017-07-14T13:06:30.619Z,55840
2017-07-14T13:07:31.359Z,27776
2017-07-14T13:08:32.097Z,26688
2017-07-14T13:09:32.837Z,24096
2017-07-14T13:10:33.578Z,22048
2017-07-14T13:11:34.338Z,20704
2017-07-14T13:12:35.080Z,18944
2017-07-14T13:13:35.815Z,17216
2017-07-14T13:14:36.576Z,15564
2017-07-14T13:15:37.313Z,14408
2017-07-14T13:16:38.051Z,14448
2017-07-14T13:17:38.793Z,15432
2017-07-14T13:18:39.529Z,22144
2017-07-14T13:19:40.271Z,21504
2017-07-14T13:20:41.009Z,17760
2017-07-14T13:21:41.745Z,17856
2017-07-14T13:22:42.504Z,19136
2017-07-14T13:23:43.261Z,22720
2017-07-14T13:24:44.004Z,22560
2017-07-14T13:25:44.741Z,20736
2017-07-14T13:26:45.482Z,20160
2017-07-14T13:27:46.221Z,18464
2017-07-14T13:28:46.965Z,17696
2017-07-14T13:29:47.703Z,18432
2017-07-14T13:30:48.441Z,18880
2017-07-14T13:31:49.183Z,16348
2017-07-14T13:32:49.940Z,15108
2017-07-14T13:33:50.678Z,13868
2017-07-14T13:34:51.416Z,12072
2017-07-14T13:35:52.156Z,10024
2017-07-14T13:36:52.895Z,8628
2017-07-14T13:37:53.627Z,7556
2017-07-14T13:38:54.367Z,6508
2017-07-14T13:39:55.104Z,5996